Time;durP1;ratioP1;P1;durP2;ratioP2;P2;SDS_P1;SDS_P2;PMS_P1;PMS_P2;Temp;Humidity;BMP_temperature;BMP_pressure;BME280_temperature;BME280_humidity;BME280_pressure;Samples;Min_cycle;Max_cycle;Signal;HPM_P1;HPM_P2
2023/12/23 00:00:22;;;;;;;0.60;0.45;;;20.60;51.90;;;;;;4979680;28;20109;-70
2023/12/23 00:02:48;;;;;;;0.95;0.60;;;20.60;51.90;;;;;;4981822;28;20045;-70
2023/12/23 00:05:14;;;;;;;0.68;0.50;;;20.60;51.90;;;;;;4991601;28;20038;-69
2023/12/23 00:07:39;;;;;;;1.13;0.50;;;20.60;51.90;;;;;;4994689;28;20490;-70
2023/12/23 00:10:05;;;;;;;1.52;0.80;;;20.60;51.90;;;;;;4978651;28;20018;-69
2023/12/23 00:12:31;;;;;;;0.68;0.45;;;20.60;51.90;;;;;;4977128;28;20475;-69
2023/12/23 00:14:57;;;;;;;0.63;0.50;;;20.60;51.90;;;;;;4982479;28;20106;-70
2023/12/23 00:17:22;;;;;;;0.77;0.63;;;20.60;51.90;;;;;;4978493;28;20496;-69
2023/12/23 00:19:48;;;;;;;0.82;0.52;;;20.60;51.90;;;;;;4977273;28;20035;-70
2023/12/23 00:22:14;;;;;;;0.70;0.57;;;20.60;51.90;;;;;;4978059;28;20030;-70
2023/12/23 00:24:39;;;;;;;0.47;0.40;;;20.50;51.90;;;;;;4980306;28;20383;-70
2023/12/23 00:27:05;;;;;;;0.60;0.50;;;20.50;51.90;;;;;;4978662;28;20031;-70
2023/12/23 00:29:31;;;;;;;1.17;0.50;;;20.50;51.90;;;;;;4979308;28;20045;-69
2023/12/23 00:31:57;;;;;;;0.80;0.60;;;20.50;51.90;;;;;;4977389;28;20097;-70
2023/12/23 00:34:22;;;;;;;0.60;0.60;;;20.50;51.90;;;;;;4979053;28;20038;-68
2023/12/23 00:36:48;;;;;;;0.77;0.50;;;20.50;51.90;;;;;;4980362;28;20045;-69
2023/12/23 00:39:15;;;;;;;0.70;0.47;;;20.50;52.00;;;;;;4981405;28;20026;-68
2023/12/23 00:41:41;;;;;;;1.23;0.70;;;20.40;51.90;;;;;;4982252;28;20701;-68
2023/12/23 00:44:06;;;;;;;1.02;0.60;;;20.40;51.90;;;;;;4980586;28;20031;-68
2023/12/23 00:46:32;;;;;;;0.75;0.43;;;20.50;51.90;;;;;;4982981;28;20060;-68
2023/12/23 00:48:58;;;;;;;1.20;0.77;;;20.50;51.90;;;;;;4980548;28;20223;-68
2023/12/23 00:51:23;;;;;;;0.73;0.50;;;20.50;51.90;;;;;;4981777;28;20031;-68
2023/12/23 00:53:49;;;;;;;0.43;0.43;;;20.40;51.90;;;;;;4982752;28;20041;-68
2023/12/23 00:56:22;;;;;;;0.50;0.50;;;20.40;51.90;;;;;;4980131;28;20049;-68
2023/12/23 00:58:48;;;;;;;0.90;0.60;;;20.40;51.90;;;;;;4983287;28;20501;-69
2023/12/23 01:01:14;;;;;;;0.60;0.45;;;20.40;51.90;;;;;;4982934;28;20038;-68
2023/12/23 01:03:40;;;;;;;0.65;0.50;;;20.40;51.90;;;;;;4982356;28;20026;-68
2023/12/23 01:06:05;;;;;;;0.75;0.60;;;20.40;51.90;;;;;;4997342;28;20057;-68
2023/12/23 01:08:31;;;;;;;1.38;0.77;;;20.40;51.90;;;;;;4983266;28;20035;-68
2023/12/23 01:10:57;;;;;;;0.52;0.50;;;20.40;51.90;;;;;;4980993;28;20041;-68
2023/12/23 01:13:23;;;;;;;0.52;0.43;;;20.40;52.00;;;;;;4982514;28;20088;-68
2023/12/23 01:15:49;;;;;;;1.02;0.60;;;20.30;51.90;;;;;;4983732;28;20062;-68
2023/12/23 01:18:16;;;;;;;0.93;0.50;;;20.30;51.90;;;;;;4994405;28;20055;-68
2023/12/23 01:20:42;;;;;;;1.10;0.60;;;20.30;51.90;;;;;;4980945;28;20034;-68
2023/12/23 01:23:08;;;;;;;0.47;0.40;;;20.30;52.00;;;;;;4981469;28;20117;-68
2023/12/23 01:25:34;;;;;;;0.77;0.60;;;20.30;52.50;;;;;;4980217;28;20034;-68
2023/12/23 01:28:04;;;;;;;0.68;0.55;;;20.30;52.00;;;;;;4981465;28;20035;-68
2023/12/23 01:30:31;;;;;;;0.75;0.52;;;20.30;52.00;;;;;;4980486;28;20114;-68
2023/12/23 01:32:56;;;;;;;0.65;0.47;;;20.30;52.00;;;;;;4981576;28;20034;-69
2023/12/23 01:35:22;;;;;;;0.93;0.60;;;20.30;52.00;;;;;;4995690;28;20037;-69
2023/12/23 01:37:47;;;;;;;0.50;0.50;;;20.30;52.00;;;;;;4981211;28;20910;-69
2023/12/23 01:40:13;;;;;;;0.95;0.60;;;20.30;52.00;;;;;;4982343;28;20017;-69
2023/12/23 01:42:39;;;;;;;0.70;0.60;;;20.30;52.00;;;;;;4998437;28;20533;-69
2023/12/23 01:45:06;;;;;;;0.68;0.50;;;20.20;52.00;;;;;;4980739;28;20026;-70
2023/12/23 01:47:34;;;;;;;0.52;0.50;;;20.30;52.10;;;;;;4979295;28;20517;-70
2023/12/23 01:50:00;;;;;;;0.65;0.50;;;20.30;52.00;;;;;;4980283;28;20482;-70
2023/12/23 01:52:26;;;;;;;0.85;0.55;;;20.20;52.00;;;;;;4979674;28;20520;-70
2023/12/23 01:54:52;;;;;;;0.47;0.43;;;20.20;52.10;;;;;;4982270;28;20109;-70
2023/12/23 01:57:18;;;;;;;0.60;0.40;;;20.20;52.10;;;;;;4978113;28;20022;-69
2023/12/23 01:59:44;;;;;;;1.20;0.70;;;20.20;52.10;;;;;;4982894;28;20034;-69
2023/12/23 02:02:11;;;;;;;0.88;0.40;;;20.20;52.10;;;;;;4993827;28;20022;-69
2023/12/23 02:04:37;;;;;;;0.50;0.47;;;20.20;52.10;;;;;;4978396;28;20116;-69
2023/12/23 02:07:03;;;;;;;0.57;0.45;;;20.20;52.10;;;;;;4980708;28;20033;-69
2023/12/23 02:09:30;;;;;;;0.95;0.60;;;20.20;52.10;;;;;;4980462;28;20221;-70
2023/12/23 02:12:15;;;;;;;0.80;0.60;;;20.20;52.10;;;;;;4980123;28;20200;-69
2023/12/23 02:14:47;;;;;;;0.75;0.52;;;20.20;52.10;;;;;;4981564;28;20462;-69
2023/12/23 02:17:13;;;;;;;0.70;0.40;;;20.20;52.10;;;;;;4981311;28;20030;-69
2023/12/23 02:19:38;;;;;;;0.50;0.50;;;20.10;52.10;;;;;;4977749;28;20566;-69
2023/12/23 02:22:04;;;;;;;0.70;0.50;;;20.20;52.20;;;;;;4995764;28;20490;-69
2023/12/23 02:24:30;;;;;;;0.73;0.50;;;20.20;52.10;;;;;;4981834;28;20030;-70
2023/12/23 02:27:03;;;;;;;0.65;0.50;;;20.10;52.10;;;;;;4980495;28;20031;-69
2023/12/23 02:29:29;;;;;;;0.52;0.40;;;20.20;52.10;;;;;;4981182;28;20048;-69
2023/12/23 02:31:57;;;;;;;0.43;0.40;;;20.10;52.10;;;;;;4982330;28;20356;-69
2023/12/23 02:34:23;;;;;;;0.70;0.50;;;20.10;52.10;;;;;;4996455;28;20444;-70
2023/12/23 02:36:48;;;;;;;0.40;0.40;;;20.10;52.10;;;;;;4977946;28;20173;-69
2023/12/23 02:39:14;;;;;;;0.45;0.40;;;20.10;52.10;;;;;;4981576;28;20107;-69
2023/12/23 02:41:39;;;;;;;1.00;0.63;;;20.10;52.20;;;;;;4996395;28;20501;-69
2023/12/23 02:44:05;;;;;;;0.40;0.40;;;20.10;52.10;;;;;;4980356;28;20030;-69
2023/12/23 02:46:31;;;;;;;0.70;0.57;;;20.10;52.10;;;;;;4994575;28;20041;-69
2023/12/23 02:48:56;;;;;;;0.68;0.47;;;20.10;52.20;;;;;;4979285;28;20030;-68
2023/12/23 02:51:22;;;;;;;0.57;0.50;;;20.10;52.20;;;;;;4980023;28;20486;-69
2023/12/23 02:53:47;;;;;;;0.80;0.55;;;20.10;52.20;;;;;;4979973;28;20039;-68
2023/12/23 02:56:13;;;;;;;0.40;0.40;;;20.00;52.20;;;;;;4980776;28;20023;-68
2023/12/23 02:58:38;;;;;;;1.85;0.57;;;20.00;52.20;;;;;;4980282;28;20061;-69
2023/12/23 03:01:07;;;;;;;0.63;0.40;;;20.10;52.20;;;;;;4980629;28;20114;-68
2023/12/23 03:03:33;;;;;;;0.30;0.30;;;20.00;52.20;;;;;;4979863;28;20097;-69
2023/12/23 03:05:59;;;;;;;0.50;0.40;;;20.00;52.20;;;;;;4975980;28;20125;-69
2023/12/23 03:08:24;;;;;;;0.77;0.50;;;20.00;52.20;;;;;;4978177;28;20138;-68
2023/12/23 03:10:51;;;;;;;0.52;0.40;;;20.00;52.20;;;;;;4981513;28;20030;-68
2023/12/23 03:13:16;;;;;;;0.52;0.47;;;20.00;52.20;;;;;;4978936;28;20112;-68
2023/12/23 03:15:42;;;;;;;0.55;0.50;;;20.00;52.20;;;;;;4979933;28;20517;-68
2023/12/23 03:18:08;;;;;;;0.40;0.40;;;20.00;52.20;;;;;;4980149;28;20546;-68
2023/12/23 03:20:33;;;;;;;0.40;0.40;;;20.00;52.20;;;;;;4993204;28;20117;-68
2023/12/23 03:22:59;;;;;;;0.60;0.60;;;20.00;52.20;;;;;;4979118;28;20033;-68
2023/12/23 03:25:24;;;;;;;0.65;0.40;;;20.00;52.20;;;;;;4982316;28;20027;-68
2023/12/23 03:27:50;;;;;;;0.45;0.40;;;20.00;52.20;;;;;;4978993;28;20034;-68
2023/12/23 03:30:16;;;;;;;0.30;0.30;;;19.90;52.10;;;;;;4980331;28;20451;-68
2023/12/23 03:32:42;;;;;;;0.60;0.50;;;20.00;52.20;;;;;;4980937;28;20038;-69
2023/12/23 03:35:07;;;;;;;0.60;0.40;;;19.90;52.20;;;;;;4991939;28;20117;-68
2023/12/23 03:37:33;;;;;;;0.80;0.50;;;19.90;52.20;;;;;;4979644;28;20050;-68
2023/12/23 03:39:59;;;;;;;0.60;0.35;;;19.90;52.20;;;;;;4977538;28;20031;-69
2023/12/23 03:42:24;;;;;;;0.98;0.40;;;19.90;52.20;;;;;;4979646;28;20061;-68
2023/12/23 03:44:50;;;;;;;1.55;0.50;;;19.90;52.20;;;;;;4993431;28;20118;-68
2023/12/23 03:47:16;;;;;;;0.55;0.50;;;19.90;52.20;;;;;;4979915;28;20109;-69
2023/12/23 03:49:42;;;;;;;0.50;0.50;;;19.90;52.20;;;;;;4976554;28;20109;-68
2023/12/23 03:52:08;;;;;;;0.40;0.40;;;19.90;52.20;;;;;;4980062;28;20484;-68
2023/12/23 03:54:33;;;;;;;0.75;0.50;;;19.90;52.20;;;;;;4978176;28;20110;-69
2023/12/23 03:56:59;;;;;;;0.50;0.40;;;19.90;52.20;;;;;;4994470;28;20549;-68
2023/12/23 03:59:24;;;;;;;0.52;0.40;;;19.90;52.20;;;;;;4979360;28;20046;-68
2023/12/23 04:01:50;;;;;;;0.63;0.52;;;19.90;52.20;;;;;;4994229;28;20526;-68
2023/12/23 04:04:16;;;;;;;0.50;0.40;;;19.90;52.20;;;;;;4981269;28;20038;-68
2023/12/23 04:06:41;;;;;;;0.47;0.40;;;19.90;52.20;;;;;;4978824;28;20026;-68
2023/12/23 04:09:09;;;;;;;0.60;0.40;;;19.90;52.20;;;;;;4979799;28;20023;-68
2023/12/23 04:11:38;;;;;;;0.60;0.50;;;19.80;52.20;;;;;;4981948;28;20494;-68
2023/12/23 04:14:04;;;;;;;0.70;0.45;;;19.80;52.20;;;;;;4983421;28;20031;-68
2023/12/23 04:16:29;;;;;;;0.40;0.40;;;19.80;52.20;;;;;;4982760;28;20031;-68
2023/12/23 04:18:55;;;;;;;0.35;0.35;;;19.80;52.20;;;;;;4983802;28;20457;-68
2023/12/23 04:21:21;;;;;;;1.05;0.50;;;19.80;52.30;;;;;;4980880;28;20554;-68
2023/12/23 04:23:46;;;;;;;0.73;0.40;;;19.80;52.30;;;;;;4985890;28;20034;-68
2023/12/23 04:26:14;;;;;;;0.40;0.40;;;19.80;52.30;;;;;;4984005;28;20109;-68
2023/12/23 04:28:39;;;;;;;0.40;0.40;;;19.80;52.30;;;;;;4984092;28;20046;-68
2023/12/23 04:31:06;;;;;;;0.50;0.30;;;19.80;52.30;;;;;;4998037;28;20037;-67
2023/12/23 04:33:34;;;;;;;0.90;0.50;;;19.80;52.30;;;;;;4981469;28;20457;-68
2023/12/23 04:36:00;;;;;;;0.50;0.40;;;19.80;52.30;;;;;;4995185;28;20471;-68
2023/12/23 04:38:25;;;;;;;0.35;0.35;;;19.80;52.30;;;;;;4982069;28;20033;-68
2023/12/23 04:40:51;;;;;;;0.40;0.40;;;19.80;52.30;;;;;;4983394;28;20100;-68
2023/12/23 04:43:17;;;;;;;0.60;0.40;;;19.70;52.30;;;;;;4983047;28;20031;-68
2023/12/23 04:45:43;;;;;;;0.35;0.30;;;19.80;52.40;;;;;;4981648;28;20039;-68
2023/12/23 04:48:08;;;;;;;0.30;0.30;;;19.70;52.80;;;;;;4983660;28;20428;-68
2023/12/23 04:50:34;;;;;;;0.40;0.40;;;19.80;52.40;;;;;;4982551;28;20438;-68
2023/12/23 04:53:00;;;;;;;0.55;0.40;;;19.70;52.30;;;;;;4996334;28;20027;-68
2023/12/23 04:55:25;;;;;;;0.43;0.40;;;19.70;52.40;;;;;;4999835;28;20038;-68
2023/12/23 04:57:51;;;;;;;0.43;0.35;;;19.80;52.40;;;;;;4997179;28;20034;-68
2023/12/23 05:00:17;;;;;;;0.57;0.40;;;19.70;52.40;;;;;;4980691;28;20019;-69
2023/12/23 05:02:43;;;;;;;0.55;0.50;;;19.70;52.40;;;;;;4983691;28;20031;-68
2023/12/23 05:05:08;;;;;;;0.75;0.47;;;19.70;52.40;;;;;;4982719;28;20027;-69
2023/12/23 05:07:34;;;;;;;0.40;0.40;;;19.70;52.40;;;;;;4981896;28;20030;-69
2023/12/23 05:09:59;;;;;;;0.50;0.40;;;19.70;52.40;;;;;;4981083;28;20541;-69
2023/12/23 05:12:25;;;;;;;0.30;0.30;;;19.70;52.40;;;;;;4981171;28;20062;-70
2023/12/23 05:14:51;;;;;;;0.30;0.30;;;19.70;52.40;;;;;;4981175;28;20018;-69
2023/12/23 05:17:17;;;;;;;0.30;0.30;;;19.70;52.40;;;;;;4981753;28;20034;-69
2023/12/23 05:19:43;;;;;;;0.30;0.30;;;19.70;52.40;;;;;;4981088;28;20038;-69
2023/12/23 05:22:08;;;;;;;0.40;0.40;;;19.70;52.40;;;;;;4979752;28;20888;-69
2023/12/23 05:24:37;;;;;;;0.32;0.32;;;19.70;52.40;;;;;;4983042;28;20074;-69
2023/12/23 05:27:04;;;;;;;0.30;0.30;;;19.70;52.50;;;;;;4980176;28;20032;-69
2023/12/23 05:29:30;;;;;;;0.30;0.30;;;19.70;52.40;;;;;;4981400;28;20444;-69
2023/12/23 05:31:56;;;;;;;0.40;0.40;;;19.60;52.40;;;;;;4980975;28;20049;-69
2023/12/23 05:34:21;;;;;;;0.30;0.30;;;19.70;52.40;;;;;;4981722;28;20049;-69
2023/12/23 05:36:47;;;;;;;0.50;0.47;;;19.60;52.40;;;;;;4979710;28;20019;-68
2023/12/23 05:39:13;;;;;;;0.32;0.32;;;19.60;52.40;;;;;;4982103;28;20078;-69
2023/12/23 05:41:39;;;;;;;0.50;0.40;;;19.60;52.50;;;;;;4982891;28;20542;-69
2023/12/23 05:44:04;;;;;;;0.47;0.43;;;19.60;52.40;;;;;;4995767;28;20038;-69
2023/12/23 05:46:30;;;;;;;0.30;0.30;;;19.60;52.40;;;;;;4980710;28;20038;-69
2023/12/23 05:48:56;;;;;;;0.35;0.35;;;19.60;52.40;;;;;;4981669;28;20081;-69
2023/12/23 05:51:21;;;;;;;0.32;0.32;;;19.60;52.40;;;;;;4980658;28;20617;-69
2023/12/23 05:53:47;;;;;;;0.40;0.40;;;19.60;52.40;;;;;;4983121;28;20042;-69
2023/12/23 05:56:12;;;;;;;0.68;0.40;;;19.60;52.40;;;;;;4980481;28;20034;-69
2023/12/23 05:58:38;;;;;;;0.43;0.40;;;19.60;52.40;;;;;;4980585;28;20042;-69
2023/12/23 06:01:06;;;;;;;0.45;0.35;;;19.60;52.40;;;;;;4994779;28;20038;-68
2023/12/23 06:03:32;;;;;;;0.30;0.30;;;19.60;52.40;;;;;;4982137;28;20030;-68
2023/12/23 06:05:58;;;;;;;0.30;0.30;;;19.60;52.40;;;;;;4981088;28;20031;-69
2023/12/23 06:08:23;;;;;;;0.38;0.38;;;19.60;52.40;;;;;;4978772;28;20026;-69
2023/12/23 06:10:49;;;;;;;0.30;0.30;;;19.60;52.40;;;;;;4978646;28;20117;-69
2023/12/23 06:13:15;;;;;;;0.30;0.30;;;19.60;52.40;;;;;;4982564;28;20023;-69
2023/12/23 06:15:40;;;;;;;0.30;0.30;;;19.60;52.40;;;;;;4995434;28;20391;-69
2023/12/23 06:18:06;;;;;;;0.30;0.30;;;19.60;52.40;;;;;;4979017;28;20018;-69
2023/12/23 06:20:32;;;;;;;0.38;0.38;;;19.60;52.40;;;;;;4979238;28;20092;-69
2023/12/23 06:22:57;;;;;;;0.35;0.35;;;19.50;52.40;;;;;;4979090;28;20558;-70
2023/12/23 06:25:23;;;;;;;0.50;0.40;;;19.50;52.40;;;;;;4981586;28;20077;-70
2023/12/23 06:27:49;;;;;;;0.20;0.20;;;19.50;52.40;;;;;;4981982;28;20518;-69
2023/12/23 06:30:15;;;;;;;0.40;0.40;;;19.50;52.40;;;;;;4980011;28;20062;-70
2023/12/23 06:32:40;;;;;;;0.30;0.30;;;19.50;52.40;;;;;;4994288;28;20034;-69
2023/12/23 06:35:06;;;;;;;0.30;0.30;;;19.50;52.40;;;;;;4996122;28;20022;-70
2023/12/23 06:37:32;;;;;;;0.50;0.40;;;19.50;52.40;;;;;;4979576;28;20031;-70
2023/12/23 06:39:59;;;;;;;0.38;0.32;;;19.50;52.40;;;;;;4997119;28;20023;-69
2023/12/23 06:42:25;;;;;;;0.35;0.30;;;19.50;53.00;;;;;;4998613;28;20014;-70
2023/12/23 06:44:51;;;;;;;0.45;0.40;;;19.50;52.40;;;;;;4979656;28;20034;-70
2023/12/23 06:47:16;;;;;;;0.30;0.30;;;19.50;52.40;;;;;;4979406;28;20417;-69
2023/12/23 06:49:42;;;;;;;0.40;0.30;;;19.50;52.40;;;;;;4980195;28;20033;-70
2023/12/23 06:52:08;;;;;;;0.55;0.40;;;19.50;52.40;;;;;;4994429;28;20172;-70
2023/12/23 06:54:33;;;;;;;0.40;0.40;;;19.50;52.40;;;;;;4994173;28;20399;-70
2023/12/23 06:56:59;;;;;;;0.30;0.30;;;19.50;52.40;;;;;;4978943;28;20031;-70
2023/12/23 06:59:24;;;;;;;0.30;0.30;;;19.50;52.40;;;;;;4981881;28;20471;-70
2023/12/23 07:01:50;;;;;;;0.30;0.30;;;19.50;52.40;;;;;;4977696;28;20030;-69
2023/12/23 07:04:15;;;;;;;0.20;0.20;;;19.50;52.40;;;;;;4979121;28;20109;-70
2023/12/23 07:06:41;;;;;;;0.30;0.30;;;19.50;52.40;;;;;;4978242;28;20034;-70
2023/12/23 07:09:07;;;;;;;0.38;0.38;;;19.50;52.40;;;;;;4979865;28;20038;-70
2023/12/23 07:11:32;;;;;;;0.40;0.40;;;19.50;52.40;;;;;;4981011;28;20479;-70
2023/12/23 07:13:59;;;;;;;0.30;0.30;;;19.50;52.40;;;;;;4979517;28;20495;-69
2023/12/23 07:16:24;;;;;;;0.60;0.40;;;19.50;52.40;;;;;;4979111;28;20026;-70
2023/12/23 07:18:50;;;;;;;0.30;0.30;;;19.50;52.40;;;;;;4979942;28;20022;-69
2023/12/23 07:21:15;;;;;;;0.40;0.38;;;19.50;52.40;;;;;;4980548;28;20513;-70
2023/12/23 07:23:41;;;;;;;0.38;0.38;;;19.50;52.40;;;;;;4977984;28;20053;-70
2023/12/23 07:26:12;;;;;;;0.30;0.30;;;19.40;52.40;;;;;;4979945;28;20478;-70
2023/12/23 07:28:37;;;;;;;0.30;0.30;;;19.40;52.30;;;;;;4979023;28;20389;-70
2023/12/23 07:31:03;;;;;;;0.30;0.30;;;19.50;52.40;;;;;;4995408;28;20029;-71
2023/12/23 07:33:29;;;;;;;0.40;0.35;;;19.40;52.40;;;;;;4977819;28;20649;-70
2023/12/23 07:35:54;;;;;;;0.32;0.30;;;19.40;52.30;;;;;;4979770;28;20033;-69
2023/12/23 07:38:21;;;;;;;0.60;0.40;;;19.40;52.40;;;;;;4994348;28;20023;-70
2023/12/23 07:40:47;;;;;;;0.50;0.40;;;19.40;52.40;;;;;;4977940;28;20030;-70
2023/12/23 07:43:13;;;;;;;0.40;0.40;;;19.40;52.30;;;;;;4978336;28;20027;-69
2023/12/23 07:45:38;;;;;;;0.65;0.40;;;19.40;52.30;;;;;;4982780;28;20041;-69
2023/12/23 07:48:04;;;;;;;0.47;0.40;;;19.40;52.40;;;;;;4985712;28;20046;-69
2023/12/23 07:50:30;;;;;;;0.30;0.30;;;19.40;52.40;;;;;;4983440;28;20471;-69
2023/12/23 07:52:56;;;;;;;0.55;0.45;;;19.40;52.40;;;;;;4984201;28;20034;-70
2023/12/23 07:55:21;;;;;;;0.63;0.50;;;19.40;52.40;;;;;;4981978;28;20483;-69
2023/12/23 07:57:47;;;;;;;0.40;0.40;;;19.40;52.40;;;;;;4985247;28;20022;-70
2023/12/23 08:00:14;;;;;;;0.40;0.40;;;19.40;52.40;;;;;;4998469;28;20479;-69
2023/12/23 08:02:39;;;;;;;0.40;0.40;;;19.40;52.40;;;;;;4983879;28;20121;-70
2023/12/23 08:05:05;;;;;;;0.30;0.30;;;19.40;52.40;;;;;;4998654;28;20542;-69
2023/12/23 08:07:31;;;;;;;0.35;0.35;;;19.40;52.40;;;;;;4983133;28;20053;-69
2023/12/23 08:09:56;;;;;;;0.60;0.50;;;19.40;52.40;;;;;;4982184;28;20394;-69
2023/12/23 08:12:22;;;;;;;0.40;0.40;;;19.40;52.30;;;;;;4981455;28;20031;-69
2023/12/23 08:14:48;;;;;;;0.40;0.40;;;19.40;52.30;;;;;;4983278;28;20501;-67
2023/12/23 08:17:13;;;;;;;0.60;0.43;;;19.40;52.30;;;;;;4983406;28;20065;-68
2023/12/23 08:19:39;;;;;;;0.40;0.40;;;19.40;52.40;;;;;;4981353;28;20402;-68
2023/12/23 08:22:05;;;;;;;0.30;0.30;;;19.40;52.40;;;;;;4982669;28;20027;-68
2023/12/23 08:24:31;;;;;;;0.40;0.40;;;19.40;52.40;;;;;;4996477;28;20113;-68
2023/12/23 08:26:56;;;;;;;0.47;0.40;;;19.40;52.40;;;;;;4981911;28;20109;-65
2023/12/23 08:29:24;;;;;;;0.30;0.30;;;19.40;52.40;;;;;;4982813;28;20031;-66
2023/12/23 08:31:50;;;;;;;0.43;0.40;;;19.40;52.40;;;;;;4982968;28;20378;-67
2023/12/23 08:34:15;;;;;;;0.40;0.40;;;19.40;52.40;;;;;;4982203;28;20041;-73
2023/12/23 08:36:41;;;;;;;0.30;0.30;;;19.40;52.40;;;;;;4982513;28;20046;-73
2023/12/23 08:39:07;;;;;;;0.45;0.40;;;19.40;52.40;;;;;;4997573;28;20065;-73
2023/12/23 08:41:35;;;;;;;0.50;0.50;;;19.40;52.50;;;;;;4983505;28;20064;-73
2023/12/23 08:44:02;;;;;;;0.45;0.40;;;19.40;52.50;;;;;;4997493;28;20058;-74
2023/12/23 08:46:28;;;;;;;0.50;0.50;;;19.30;52.40;;;;;;4980567;28;20088;-72
2023/12/23 08:48:54;;;;;;;0.35;0.35;;;19.30;52.40;;;;;;4982295;28;20035;-73
2023/12/23 08:51:20;;;;;;;0.80;0.50;;;19.30;52.40;;;;;;4983107;28;20031;-73
2023/12/23 08:53:46;;;;;;;0.60;0.50;;;19.30;52.40;;;;;;4982589;28;20031;-73
2023/12/23 08:56:11;;;;;;;0.68;0.55;;;19.30;52.40;;;;;;4980963;28;20470;-74
2023/12/23 08:58:37;;;;;;;0.70;0.50;;;19.30;52.50;;;;;;4983753;28;20359;-73
2023/12/23 09:01:03;;;;;;;0.43;0.40;;;19.30;52.40;;;;;;4983923;28;20129;-72
2023/12/23 09:03:30;;;;;;;0.52;0.40;;;19.30;52.40;;;;;;4982318;28;20502;-73
2023/12/23 09:05:57;;;;;;;0.40;0.40;;;19.30;52.40;;;;;;4981276;28;20026;-69
2023/12/23 09:08:22;;;;;;;0.47;0.47;;;19.30;52.90;;;;;;4981495;28;20034;-70
2023/12/23 09:10:48;;;;;;;0.47;0.47;;;19.30;52.40;;;;;;4981915;28;20029;-69
2023/12/23 09:13:14;;;;;;;0.50;0.50;;;19.30;52.40;;;;;;4982297;28;20069;-69
2023/12/23 09:15:40;;;;;;;0.98;0.60;;;19.30;52.40;;;;;;4978657;28;20038;-69
2023/12/23 09:18:05;;;;;;;0.47;0.47;;;19.30;52.40;;;;;;4983809;28;20026;-68
2023/12/23 09:20:31;;;;;;;0.40;0.40;;;19.30;52.50;;;;;;4981715;28;20494;-69
2023/12/23 09:22:57;;;;;;;0.75;0.50;;;19.30;52.50;;;;;;4980745;28;20399;-66
2023/12/23 09:25:23;;;;;;;0.80;0.50;;;19.30;52.50;;;;;;4983205;28;20041;-65
2023/12/23 09:27:48;;;;;;;0.50;0.50;;;19.30;52.60;;;;;;4997463;28;20110;-66
2023/12/23 09:30:15;;;;;;;0.55;0.50;;;19.30;52.60;;;;;;4983618;28;20059;-66
2023/12/23 09:32:40;;;;;;;0.55;0.40;;;19.30;52.60;;;;;;4982082;28;20132;-66
2023/12/23 09:35:06;;;;;;;0.73;0.47;;;19.30;52.60;;;;;;4981071;28;20149;-66
2023/12/23 09:37:32;;;;;;;0.47;0.38;;;19.30;52.60;;;;;;4983491;28;20018;-66
2023/12/23 09:39:59;;;;;;;0.73;0.40;;;19.30;52.60;;;;;;4980543;28;20030;-66
2023/12/23 09:42:25;;;;;;;0.70;0.40;;;19.30;52.60;;;;;;4982072;28;20559;-67
2023/12/23 09:44:51;;;;;;;0.73;0.40;;;19.30;52.60;;;;;;4981362;28;20054;-66
2023/12/23 09:47:17;;;;;;;0.93;0.50;;;19.30;52.60;;;;;;4980192;28;20038;-65
2023/12/23 09:49:43;;;;;;;0.52;0.50;;;19.20;52.50;;;;;;4982149;28;20030;-65
2023/12/23 09:52:11;;;;;;;0.73;0.40;;;19.20;52.50;;;;;;4979608;28;20425;-65
2023/12/23 09:54:40;;;;;;;0.47;0.40;;;19.20;52.50;;;;;;4981576;28;20051;-66
2023/12/23 09:57:07;;;;;;;0.50;0.45;;;19.20;52.50;;;;;;4980628;28;20486;-66
2023/12/23 09:59:34;;;;;;;0.75;0.50;;;19.20;52.50;;;;;;4979746;28;20121;-66
2023/12/23 10:02:00;;;;;;;0.95;0.60;;;19.20;52.60;;;;;;4981817;28;20030;-67
2023/12/23 10:04:28;;;;;;;0.40;0.40;;;19.20;53.00;;;;;;4980228;28;20053;-66
2023/12/23 10:06:53;;;;;;;0.40;0.32;;;19.30;53.20;;;;;;4981533;28;20481;-66
2023/12/23 10:09:19;;;;;;;0.60;0.50;;;19.30;53.40;;;;;;4980265;28;20026;-67
2023/12/23 10:11:45;;;;;;;0.52;0.40;;;19.30;53.60;;;;;;4979212;28;20034;-65
2023/12/23 10:14:12;;;;;;;0.45;0.40;;;19.40;53.60;;;;;;4979567;28;20129;-66
2023/12/23 10:16:40;;;;;;;0.82;0.40;;;19.40;53.60;;;;;;4980292;28;20089;-66
2023/12/23 10:19:05;;;;;;;0.47;0.40;;;19.40;53.70;;;;;;4981240;28;20027;-65
2023/12/23 10:21:33;;;;;;;1.60;0.40;;;19.50;53.80;;;;;;4981704;28;20030;-65
2023/12/23 10:23:58;;;;;;;0.47;0.40;;;19.50;53.80;;;;;;4982780;28;20037;-66
2023/12/23 10:26:25;;;;;;;0.40;0.40;;;19.50;53.80;;;;;;4982087;28;20066;-66
2023/12/23 10:28:59;;;;;;;0.35;0.32;;;19.50;53.80;;;;;;4996392;28;20534;-66
2023/12/23 10:31:30;;;;;;;0.52;0.45;;;19.60;54.00;;;;;;4982721;28;20062;-65
2023/12/23 10:34:00;;;;;;;0.65;0.40;;;19.60;53.90;;;;;;4982208;28;20470;-65
2023/12/23 10:36:26;;;;;;;0.30;0.30;;;19.60;53.90;;;;;;4980632;28;20391;-64
2023/12/23 10:38:56;;;;;;;0.40;0.40;;;19.70;54.00;;;;;;4981168;28;20015;-66
2023/12/23 10:41:49;;;;;;;0.30;0.30;;;19.70;54.00;;;;;;4977085;28;20070;-64
2023/12/23 10:44:16;;;;;;;0.35;0.30;;;19.70;54.00;;;;;;4981236;28;20446;-65
2023/12/23 10:46:43;;;;;;;0.40;0.40;;;19.80;54.00;;;;;;4981548;28;20033;-65
2023/12/23 10:49:10;;;;;;;0.30;0.30;;;19.80;54.10;;;;;;4980319;28;20125;-65
2023/12/23 10:51:38;;;;;;;0.40;0.30;;;19.80;54.10;;;;;;4993995;28;20031;-66
2023/12/23 10:54:07;;;;;;;0.43;0.30;;;19.80;54.00;;;;;;4979603;28;20360;-68
2023/12/23 10:56:33;;;;;;;0.45;0.35;;;19.80;54.00;;;;;;4977884;28;20475;-68
2023/12/23 10:59:01;;;;;;;0.40;0.40;;;19.80;54.10;;;;;;4980290;28;20413;-68
2023/12/23 11:01:31;;;;;;;0.40;0.40;;;19.80;54.10;;;;;;4978368;28;20036;-68
2023/12/23 11:04:02;;;;;;;0.57;0.38;;;19.80;54.10;;;;;;4981066;28;20145;-65
2023/12/23 11:06:30;;;;;;;0.30;0.30;;;19.80;54.10;;;;;;4978812;28;20041;-65
2023/12/23 11:08:58;;;;;;;0.30;0.30;;;19.80;54.20;;;;;;4978811;28;20030;-66
2023/12/23 11:11:25;;;;;;;0.57;0.40;;;19.80;54.40;;;;;;4979186;28;20030;-65
2023/12/23 11:13:51;;;;;;;0.40;0.40;;;19.80;54.30;;;;;;4978200;28;20018;-64
2023/12/23 11:16:18;;;;;;;0.40;0.40;;;19.80;54.50;;;;;;4977082;28;20475;-65
2023/12/23 11:18:43;;;;;;;0.30;0.30;;;19.80;54.60;;;;;;4994046;28;20038;-65
2023/12/23 11:21:19;;;;;;;0.38;0.30;;;19.80;54.60;;;;;;4981022;28;20039;-65
2023/12/23 11:23:45;;;;;;;0.90;0.40;;;19.80;54.60;;;;;;4976464;28;20026;-66
2023/12/23 11:26:42;;;;;;;0.30;0.30;;;19.90;54.60;;;;;;4980906;28;20129;-65
2023/12/23 11:29:13;;;;;;;0.40;0.40;;;19.90;54.70;;;;;;4980403;28;20449;-64
2023/12/23 11:31:39;;;;;;;0.52;0.30;;;20.00;54.80;;;;;;4981201;28;20430;-64
2023/12/23 11:34:19;;;;;;;0.85;0.40;;;20.00;54.80;;;;;;4978381;28;20023;-65
2023/12/23 11:36:48;;;;;;;0.40;0.30;;;20.10;54.60;;;;;;4980239;28;20499;-65
2023/12/23 11:39:16;;;;;;;0.30;0.30;;;20.20;54.60;;;;;;4978015;28;20023;-65
2023/12/23 11:41:43;;;;;;;0.60;0.28;;;20.30;54.60;;;;;;4979805;28;20046;-64
2023/12/23 11:44:11;;;;;;;0.70;0.40;;;20.30;54.50;;;;;;4978820;28;20192;-67
2023/12/23 11:46:40;;;;;;;1.05;0.47;;;20.40;54.60;;;;;;4979718;28;20038;-68
2023/12/23 11:49:10;;;;;;;0.93;0.40;;;20.50;54.50;;;;;;4978478;28;20497;-69
2023/12/23 11:51:37;;;;;;;0.75;0.40;;;20.50;54.20;;;;;;4979422;28;20527;-69
2023/12/23 11:54:03;;;;;;;1.02;0.40;;;20.50;54.00;;;;;;4977689;28;20038;-69
2023/12/23 11:56:29;;;;;;;0.43;0.40;;;20.50;54.10;;;;;;4978965;28;20042;-68
2023/12/23 11:58:55;;;;;;;1.02;0.52;;;20.60;54.10;;;;;;4982466;28;20030;-69
2023/12/23 12:01:20;;;;;;;1.15;0.70;;;20.60;54.60;;;;;;4982181;28;20041;-69
2023/12/23 12:03:49;;;;;;;1.92;0.47;;;20.60;54.10;;;;;;4982305;28;20034;-66
2023/12/23 12:06:14;;;;;;;0.68;0.47;;;20.60;54.00;;;;;;4974996;28;20102;-66
2023/12/23 12:08:40;;;;;;;0.95;0.50;;;20.60;54.00;;;;;;4978905;28;20169;-67
2023/12/23 12:11:06;;;;;;;0.43;0.32;;;20.60;53.80;;;;;;4977178;28;20027;-67
2023/12/23 12:13:36;;;;;;;0.77;0.40;;;20.60;53.70;;;;;;4976684;28;20479;-66
2023/12/23 12:16:02;;;;;;;0.82;0.40;;;20.60;53.70;;;;;;4980056;28;20029;-65
2023/12/23 12:18:27;;;;;;;0.77;0.50;;;20.50;53.60;;;;;;4980746;28;20594;-66
2023/12/23 12:20:53;;;;;;;0.47;0.40;;;20.50;53.60;;;;;;4980715;28;20023;-65
2023/12/23 12:23:19;;;;;;;0.47;0.40;;;20.50;53.50;;;;;;4994670;28;20026;-65
2023/12/23 12:25:51;;;;;;;0.88;0.40;;;20.50;53.50;;;;;;4975479;28;20324;-65
2023/12/23 12:28:18;;;;;;;1.25;0.40;;;20.50;53.40;;;;;;4978210;28;20027;-64
2023/12/23 12:30:44;;;;;;;0.93;0.30;;;20.50;53.40;;;;;;4979361;28;20522;-64
2023/12/23 12:33:10;;;;;;;0.52;0.30;;;20.50;53.40;;;;;;4982225;28;20070;-65
2023/12/23 12:35:36;;;;;;;0.63;0.40;;;20.50;53.40;;;;;;4982404;28;20400;-65
2023/12/23 12:38:03;;;;;;;0.77;0.40;;;20.50;53.30;;;;;;4982351;28;20498;-64
2023/12/23 12:40:33;;;;;;;1.30;0.50;;;20.50;53.30;;;;;;4981336;28;20390;-65
2023/12/23 12:43:05;;;;;;;1.02;0.40;;;20.50;53.30;;;;;;4981861;28;20019;-66